sensor_id;sensor_type;location;lat;lon;timestamp;temperature;humidity
3051;DHT22;1535;51.098;6.414;2023-07-28T00:02:09;17.50;99.90
3051;DHT22;1535;51.098;6.414;2023-07-28T00:04:36;17.50;99.90
3051;DHT22;1535;51.098;6.414;2023-07-28T00:07:04;17.50;99.90
3051;DHT22;1535;51.098;6.414;2023-07-28T00:09:31;17.50;99.90
3051;DHT22;1535;51.098;6.414;2023-07-28T00:11:58;17.50;99.90
3051;DHT22;1535;51.098;6.414;2023-07-28T00:14:25;17.50;99.90
3051;DHT22;1535;51.098;6.414;2023-07-28T00:16:54;17.50;99.90
3051;DHT22;1535;51.098;6.414;2023-07-28T00:19:22;17.50;99.90
3051;DHT22;1535;51.098;6.414;2023-07-28T00:21:49;17.50;99.90
3051;DHT22;1535;51.098;6.414;2023-07-28T00:24:17;17.50;99.90
3051;DHT22;1535;51.098;6.414;2023-07-28T00:26:44;17.50;99.90
3051;DHT22;1535;51.098;6.414;2023-07-28T00:29:11;17.50;99.90
3051;DHT22;1535;51.098;6.414;2023-07-28T00:31:39;17.50;99.90
3051;DHT22;1535;51.098;6.414;2023-07-28T00:34:06;17.50;99.90
3051;DHT22;1535;51.098;6.414;2023-07-28T00:36:34;17.60;99.90
3051;DHT22;1535;51.098;6.414;2023-07-28T00:39:01;17.50;99.90
3051;DHT22;1535;51.098;6.414;2023-07-28T00:41:28;17.60;99.90
3051;DHT22;1535;51.098;6.414;2023-07-28T00:43:55;17.60;99.90
3051;DHT22;1535;51.098;6.414;2023-07-28T00:46:22;17.60;99.90
3051;DHT22;1535;51.098;6.414;2023-07-28T00:48:49;17.60;99.90
3051;DHT22;1535;51.098;6.414;2023-07-28T00:51:16;17.60;99.90
3051;DHT22;1535;51.098;6.414;2023-07-28T00:53:45;17.60;99.90
3051;DHT22;1535;51.098;6.414;2023-07-28T00:56:14;17.60;99.90
3051;DHT22;1535;51.098;6.414;2023-07-28T00:58:41;17.60;99.90
3051;DHT22;1535;51.098;6.414;2023-07-28T01:01:10;17.50;99.90
3051;DHT22;1535;51.098;6.414;2023-07-28T01:03:38;17.50;99.90
3051;DHT22;1535;51.098;6.414;2023-07-28T01:06:13;17.60;99.90
3051;DHT22;1535;51.098;6.414;2023-07-28T01:08:48;17.60;99.90
3051;DHT22;1535;51.098;6.414;2023-07-28T01:11:17;17.60;99.90
3051;DHT22;1535;51.098;6.414;2023-07-28T01:13:43;17.50;99.90
3051;DHT22;1535;51.098;6.414;2023-07-28T01:16:11;17.50;99.90
3051;DHT22;1535;51.098;6.414;2023-07-28T01:18:39;17.60;99.90
3051;DHT22;1535;51.098;6.414;2023-07-28T01:21:08;17.60;99.90
3051;DHT22;1535;51.098;6.414;2023-07-28T01:23:41;17.60;99.90
3051;DHT22;1535;51.098;6.414;2023-07-28T01:26:14;17.60;99.90
3051;DHT22;1535;51.098;6.414;2023-07-28T01:28:44;17.60;99.90
3051;DHT22;1535;51.098;6.414;2023-07-28T01:31:12;17.60;99.90
3051;DHT22;1535;51.098;6.414;2023-07-28T01:33:39;17.60;99.90
3051;DHT22;1535;51.098;6.414;2023-07-28T01:36:06;17.60;99.90
3051;DHT22;1535;51.098;6.414;2023-07-28T01:38:34;17.50;99.90
3051;DHT22;1535;51.098;6.414;2023-07-28T01:41:01;17.50;99.90
3051;DHT22;1535;51.098;6.414;2023-07-28T01:43:28;17.60;99.90
3051;DHT22;1535;51.098;6.414;2023-07-28T01:45:56;17.60;99.90
3051;DHT22;1535;51.098;6.414;2023-07-28T01:48:23;17.60;99.90
3051;DHT22;1535;51.098;6.414;2023-07-28T01:50:50;17.60;99.90
3051;DHT22;1535;51.098;6.414;2023-07-28T01:53:17;17.60;99.90
3051;DHT22;1535;51.098;6.414;2023-07-28T01:55:44;17.60;99.90
3051;DHT22;1535;51.098;6.414;2023-07-28T01:58:11;17.60;99.90
3051;DHT22;1535;51.098;6.414;2023-07-28T02:00:37;17.60;99.90
3051;DHT22;1535;51.098;6.414;2023-07-28T02:03:05;17.60;99.90
3051;DHT22;1535;51.098;6.414;2023-07-28T02:05:33;17.60;99.90
3051;DHT22;1535;51.098;6.414;2023-07-28T02:08:00;17.60;99.90
3051;DHT22;1535;51.098;6.414;2023-07-28T02:10:27;17.70;99.90
3051;DHT22;1535;51.098;6.414;2023-07-28T02:12:54;17.70;99.90
3051;DHT22;1535;51.098;6.414;2023-07-28T02:15:21;17.70;99.90
3051;DHT22;1535;51.098;6.414;2023-07-28T02:17:48;17.60;99.90
3051;DHT22;1535;51.098;6.414;2023-07-28T02:20:17;17.60;99.90
3051;DHT22;1535;51.098;6.414;2023-07-28T02:22:44;17.70;99.90
3051;DHT22;1535;51.098;6.414;2023-07-28T02:25:13;17.70;99.90
3051;DHT22;1535;51.098;6.414;2023-07-28T02:27:40;17.70;99.90
3051;DHT22;1535;51.098;6.414;2023-07-28T02:30:08;17.70;99.90
3051;DHT22;1535;51.098;6.414;2023-07-28T02:32:36;17.70;99.90
3051;DHT22;1535;51.098;6.414;2023-07-28T02:35:05;17.70;99.90
3051;DHT22;1535;51.098;6.414;2023-07-28T02:37:33;17.70;99.90
3051;DHT22;1535;51.098;6.414;2023-07-28T02:40:00;17.70;99.90
3051;DHT22;1535;51.098;6.414;2023-07-28T02:42:27;17.70;99.90
3051;DHT22;1535;51.098;6.414;2023-07-28T02:44:54;17.70;99.90
3051;DHT22;1535;51.098;6.414;2023-07-28T02:47:21;17.70;99.90
3051;DHT22;1535;51.098;6.414;2023-07-28T02:49:48;17.80;99.90
3051;DHT22;1535;51.098;6.414;2023-07-28T02:52:15;17.80;99.90
3051;DHT22;1535;51.098;6.414;2023-07-28T02:54:43;17.80;99.90
3051;DHT22;1535;51.098;6.414;2023-07-28T02:57:10;17.80;99.90
3051;DHT22;1535;51.098;6.414;2023-07-28T02:59:37;17.80;99.90
3051;DHT22;1535;51.098;6.414;2023-07-28T03:02:04;17.80;99.90
3051;DHT22;1535;51.098;6.414;2023-07-28T03:04:31;17.80;99.90
3051;DHT22;1535;51.098;6.414;2023-07-28T03:06:59;17.80;99.90
3051;DHT22;1535;51.098;6.414;2023-07-28T03:09:26;17.80;99.90
3051;DHT22;1535;51.098;6.414;2023-07-28T03:11:54;17.80;99.90
3051;DHT22;1535;51.098;6.414;2023-07-28T03:14:22;17.80;99.90
3051;DHT22;1535;51.098;6.414;2023-07-28T03:16:49;17.80;99.90
3051;DHT22;1535;51.098;6.414;2023-07-28T03:19:15;17.80;99.90
3051;DHT22;1535;51.098;6.414;2023-07-28T03:21:43;17.90;99.90
3051;DHT22;1535;51.098;6.414;2023-07-28T03:24:09;17.80;99.90
3051;DHT22;1535;51.098;6.414;2023-07-28T03:26:36;17.90;99.90
3051;DHT22;1535;51.098;6.414;2023-07-28T03:29:05;17.80;99.90
3051;DHT22;1535;51.098;6.414;2023-07-28T03:31:32;17.80;99.90
3051;DHT22;1535;51.098;6.414;2023-07-28T03:34:01;17.90;99.90
3051;DHT22;1535;51.098;6.414;2023-07-28T03:36:27;17.90;99.90
3051;DHT22;1535;51.098;6.414;2023-07-28T03:38:54;17.80;99.90
3051;DHT22;1535;51.098;6.414;2023-07-28T03:41:21;17.80;99.90
3051;DHT22;1535;51.098;6.414;2023-07-28T03:43:48;17.90;99.90
3051;DHT22;1535;51.098;6.414;2023-07-28T03:46:17;17.80;99.90
3051;DHT22;1535;51.098;6.414;2023-07-28T03:48:44;17.80;99.90
3051;DHT22;1535;51.098;6.414;2023-07-28T03:51:11;17.90;99.90
3051;DHT22;1535;51.098;6.414;2023-07-28T03:53:38;17.80;99.90
3051;DHT22;1535;51.098;6.414;2023-07-28T03:56:05;17.80;99.90
3051;DHT22;1535;51.098;6.414;2023-07-28T03:58:31;17.80;99.90
3051;DHT22;1535;51.098;6.414;2023-07-28T04:00:59;17.90;99.90
3051;DHT22;1535;51.098;6.414;2023-07-28T04:03:28;17.90;99.90
3051;DHT22;1535;51.098;6.414;2023-07-28T04:05:55;17.90;99.90
3051;DHT22;1535;51.098;6.414;2023-07-28T04:08:22;17.90;99.90
3051;DHT22;1535;51.098;6.414;2023-07-28T04:10:50;17.80;99.90
3051;DHT22;1535;51.098;6.414;2023-07-28T04:13:17;17.90;99.90
3051;DHT22;1535;51.098;6.414;2023-07-28T04:15:45;17.90;99.90
3051;DHT22;1535;51.098;6.414;2023-07-28T04:18:12;17.90;99.90
3051;DHT22;1535;51.098;6.414;2023-07-28T04:20:40;17.90;99.90
3051;DHT22;1535;51.098;6.414;2023-07-28T04:23:07;17.90;99.90
3051;DHT22;1535;51.098;6.414;2023-07-28T04:25:34;17.90;99.90
3051;DHT22;1535;51.098;6.414;2023-07-28T04:28:02;18.00;99.90
3051;DHT22;1535;51.098;6.414;2023-07-28T04:30:29;17.90;99.90
3051;DHT22;1535;51.098;6.414;2023-07-28T04:32:57;18.00;99.90
3051;DHT22;1535;51.098;6.414;2023-07-28T04:35:24;18.00;99.90
3051;DHT22;1535;51.098;6.414;2023-07-28T04:37:53;18.00;99.90
3051;DHT22;1535;51.098;6.414;2023-07-28T04:40:20;18.00;99.90
3051;DHT22;1535;51.098;6.414;2023-07-28T04:42:47;18.00;99.90
3051;DHT22;1535;51.098;6.414;2023-07-28T04:45:22;18.10;99.90
3051;DHT22;1535;51.098;6.414;2023-07-28T04:47:49;18.10;99.90
3051;DHT22;1535;51.098;6.414;2023-07-28T04:50:17;18.10;99.90
3051;DHT22;1535;51.098;6.414;2023-07-28T04:52:43;18.10;99.90
3051;DHT22;1535;51.098;6.414;2023-07-28T04:55:12;18.10;99.90
3051;DHT22;1535;51.098;6.414;2023-07-28T04:57:39;18.00;99.90
3051;DHT22;1535;51.098;6.414;2023-07-28T05:00:08;18.10;99.90
3051;DHT22;1535;51.098;6.414;2023-07-28T05:02:35;18.20;99.90
3051;DHT22;1535;51.098;6.414;2023-07-28T05:05:02;18.20;99.90
3051;DHT22;1535;51.098;6.414;2023-07-28T05:07:29;18.20;99.90
3051;DHT22;1535;51.098;6.414;2023-07-28T05:09:56;18.20;99.90
3051;DHT22;1535;51.098;6.414;2023-07-28T05:12:24;18.20;99.90
3051;DHT22;1535;51.098;6.414;2023-07-28T05:14:51;18.30;99.90
3051;DHT22;1535;51.098;6.414;2023-07-28T05:17:18;18.20;99.90
3051;DHT22;1535;51.098;6.414;2023-07-28T05:19:45;18.20;99.90
3051;DHT22;1535;51.098;6.414;2023-07-28T05:22:12;18.20;99.90
3051;DHT22;1535;51.098;6.414;2023-07-28T05:24:39;18.30;99.90
3051;DHT22;1535;51.098;6.414;2023-07-28T05:27:07;18.30;99.90
3051;DHT22;1535;51.098;6.414;2023-07-28T05:29:35;18.40;99.90
3051;DHT22;1535;51.098;6.414;2023-07-28T05:32:03;18.40;99.90
3051;DHT22;1535;51.098;6.414;2023-07-28T05:34:30;18.30;99.90
3051;DHT22;1535;51.098;6.414;2023-07-28T05:36:57;18.30;99.90
3051;DHT22;1535;51.098;6.414;2023-07-28T05:39:24;18.40;99.90
3051;DHT22;1535;51.098;6.414;2023-07-28T05:41:51;18.40;99.90
3051;DHT22;1535;51.098;6.414;2023-07-28T05:44:18;18.40;99.90
3051;DHT22;1535;51.098;6.414;2023-07-28T05:46:46;18.40;99.90
3051;DHT22;1535;51.098;6.414;2023-07-28T05:49:14;18.30;99.90
3051;DHT22;1535;51.098;6.414;2023-07-28T05:51:41;18.40;99.90
3051;DHT22;1535;51.098;6.414;2023-07-28T05:54:08;18.50;99.90
3051;DHT22;1535;51.098;6.414;2023-07-28T05:56:35;18.40;99.90
3051;DHT22;1535;51.098;6.414;2023-07-28T05:59:03;18.40;99.90
3051;DHT22;1535;51.098;6.414;2023-07-28T06:01:30;18.50;99.90
3051;DHT22;1535;51.098;6.414;2023-07-28T06:04:00;18.50;99.90
3051;DHT22;1535;51.098;6.414;2023-07-28T06:06:28;18.60;99.90
3051;DHT22;1535;51.098;6.414;2023-07-28T06:08:55;18.60;99.90
3051;DHT22;1535;51.098;6.414;2023-07-28T06:11:22;18.60;99.90
3051;DHT22;1535;51.098;6.414;2023-07-28T06:13:50;18.60;99.90
3051;DHT22;1535;51.098;6.414;2023-07-28T06:16:17;18.60;99.90
3051;DHT22;1535;51.098;6.414;2023-07-28T06:18:44;18.60;99.90
3051;DHT22;1535;51.098;6.414;2023-07-28T06:21:12;18.70;99.90
3051;DHT22;1535;51.098;6.414;2023-07-28T06:23:40;18.60;99.90
3051;DHT22;1535;51.098;6.414;2023-07-28T06:26:07;18.60;99.90
3051;DHT22;1535;51.098;6.414;2023-07-28T06:28:35;18.70;99.90
3051;DHT22;1535;51.098;6.414;2023-07-28T06:31:03;18.60;99.90
3051;DHT22;1535;51.098;6.414;2023-07-28T06:33:29;18.60;99.90
3051;DHT22;1535;51.098;6.414;2023-07-28T06:35:57;18.60;99.90
3051;DHT22;1535;51.098;6.414;2023-07-28T06:38:27;18.60;99.90
3051;DHT22;1535;51.098;6.414;2023-07-28T06:40:54;18.60;99.90
3051;DHT22;1535;51.098;6.414;2023-07-28T06:43:21;18.60;99.90
3051;DHT22;1535;51.098;6.414;2023-07-28T06:45:50;18.60;99.90
3051;DHT22;1535;51.098;6.414;2023-07-28T06:48:18;18.60;99.90
3051;DHT22;1535;51.098;6.414;2023-07-28T06:50:45;18.60;99.90
3051;DHT22;1535;51.098;6.414;2023-07-28T06:53:12;18.70;99.90
3051;DHT22;1535;51.098;6.414;2023-07-28T06:55:40;18.70;99.90
3051;DHT22;1535;51.098;6.414;2023-07-28T06:58:07;18.70;99.90
3051;DHT22;1535;51.098;6.414;2023-07-28T07:00:35;18.80;99.90
3051;DHT22;1535;51.098;6.414;2023-07-28T07:03:02;18.80;99.90
3051;DHT22;1535;51.098;6.414;2023-07-28T07:05:30;18.80;99.90
3051;DHT22;1535;51.098;6.414;2023-07-28T07:07:57;18.80;99.90
3051;DHT22;1535;51.098;6.414;2023-07-28T07:10:24;18.80;99.90
3051;DHT22;1535;51.098;6.414;2023-07-28T07:12:54;18.60;99.90
3051;DHT22;1535;51.098;6.414;2023-07-28T07:15:22;18.70;99.90
3051;DHT22;1535;51.098;6.414;2023-07-28T07:17:48;18.80;99.90
3051;DHT22;1535;51.098;6.414;2023-07-28T07:20:15;18.80;99.90
3051;DHT22;1535;51.098;6.414;2023-07-28T07:22:42;18.90;99.90
3051;DHT22;1535;51.098;6.414;2023-07-28T07:25:09;19.00;99.90
3051;DHT22;1535;51.098;6.414;2023-07-28T07:27:36;19.00;99.90
3051;DHT22;1535;51.098;6.414;2023-07-28T07:30:06;19.00;99.90
3051;DHT22;1535;51.098;6.414;2023-07-28T07:32:34;19.10;99.90
3051;DHT22;1535;51.098;6.414;2023-07-28T07:35:01;19.10;99.90
3051;DHT22;1535;51.098;6.414;2023-07-28T07:37:27;19.10;99.90
3051;DHT22;1535;51.098;6.414;2023-07-28T07:39:57;19.10;99.90
3051;DHT22;1535;51.098;6.414;2023-07-28T07:42:25;19.10;99.90
3051;DHT22;1535;51.098;6.414;2023-07-28T07:44:52;19.10;99.90
3051;DHT22;1535;51.098;6.414;2023-07-28T07:47:20;19.20;99.90
3051;DHT22;1535;51.098;6.414;2023-07-28T07:49:47;19.20;99.90
3051;DHT22;1535;51.098;6.414;2023-07-28T07:52:14;19.20;99.90
3051;DHT22;1535;51.098;6.414;2023-07-28T07:54:42;19.20;99.90
3051;DHT22;1535;51.098;6.414;2023-07-28T07:57:10;19.20;99.90
3051;DHT22;1535;51.098;6.414;2023-07-28T07:59:37;19.20;99.90
3051;DHT22;1535;51.098;6.414;2023-07-28T08:02:04;19.30;99.90
3051;DHT22;1535;51.098;6.414;2023-07-28T08:04:33;19.40;99.90
3051;DHT22;1535;51.098;6.414;2023-07-28T08:07:00;19.60;99.90
3051;DHT22;1535;51.098;6.414;2023-07-28T08:09:30;19.70;99.90
3051;DHT22;1535;51.098;6.414;2023-07-28T08:11:57;19.70;99.90
3051;DHT22;1535;51.098;6.414;2023-07-28T08:14:24;19.80;99.90
3051;DHT22;1535;51.098;6.414;2023-07-28T08:16:52;19.90;99.90
3051;DHT22;1535;51.098;6.414;2023-07-28T08:19:19;19.90;99.90
3051;DHT22;1535;51.098;6.414;2023-07-28T08:21:47;19.80;99.90
3051;DHT22;1535;51.098;6.414;2023-07-28T08:24:14;20.00;99.90
3051;DHT22;1535;51.098;6.414;2023-07-28T08:26:41;20.10;99.90
3051;DHT22;1535;51.098;6.414;2023-07-28T08:29:11;20.20;99.90
3051;DHT22;1535;51.098;6.414;2023-07-28T08:31:40;20.40;99.90
3051;DHT22;1535;51.098;6.414;2023-07-28T08:34:09;20.50;99.90
3051;DHT22;1535;51.098;6.414;2023-07-28T08:36:38;20.50;99.90
3051;DHT22;1535;51.098;6.414;2023-07-28T08:39:09;20.50;99.90
3051;DHT22;1535;51.098;6.414;2023-07-28T08:41:36;20.60;99.90
3051;DHT22;1535;51.098;6.414;2023-07-28T08:44:03;20.50;99.90
3051;DHT22;1535;51.098;6.414;2023-07-28T08:46:37;20.60;99.90
3051;DHT22;1535;51.098;6.414;2023-07-28T08:49:04;20.90;99.90
3051;DHT22;1535;51.098;6.414;2023-07-28T08:51:31;21.20;99.90
3051;DHT22;1535;51.098;6.414;2023-07-28T08:54:00;21.30;99.90
3051;DHT22;1535;51.098;6.414;2023-07-28T08:56:28;21.50;99.90
3051;DHT22;1535;51.098;6.414;2023-07-28T08:59:00;21.80;99.90
3051;DHT22;1535;51.098;6.414;2023-07-28T09:01:27;22.10;99.90
3051;DHT22;1535;51.098;6.414;2023-07-28T09:03:54;22.30;99.90
3051;DHT22;1535;51.098;6.414;2023-07-28T09:06:27;22.40;99.90
3051;DHT22;1535;51.098;6.414;2023-07-28T09:08:58;22.30;99.90
3051;DHT22;1535;51.098;6.414;2023-07-28T09:11:27;22.50;99.90
3051;DHT22;1535;51.098;6.414;2023-07-28T09:13:55;22.90;99.90
3051;DHT22;1535;51.098;6.414;2023-07-28T09:16:22;23.10;99.90
3051;DHT22;1535;51.098;6.414;2023-07-28T09:19:03;23.00;99.90
3051;DHT22;1535;51.098;6.414;2023-07-28T09:21:32;23.50;99.90
3051;DHT22;1535;51.098;6.414;2023-07-28T09:24:05;24.10;99.90
3051;DHT22;1535;51.098;6.414;2023-07-28T09:26:41;24.70;99.90
3051;DHT22;1535;51.098;6.414;2023-07-28T09:29:14;24.60;99.90
3051;DHT22;1535;51.098;6.414;2023-07-28T09:31:43;24.20;99.90
3051;DHT22;1535;51.098;6.414;2023-07-28T09:34:12;23.80;99.90
3051;DHT22;1535;51.098;6.414;2023-07-28T09:36:40;23.50;99.90
3051;DHT22;1535;51.098;6.414;2023-07-28T09:39:07;23.20;99.90
3051;DHT22;1535;51.098;6.414;2023-07-28T09:41:35;23.10;99.90
3051;DHT22;1535;51.098;6.414;2023-07-28T09:44:04;22.80;99.90
3051;DHT22;1535;51.098;6.414;2023-07-28T09:46:34;23.00;99.90
3051;DHT22;1535;51.098;6.414;2023-07-28T09:49:04;22.80;99.90
3051;DHT22;1535;51.098;6.414;2023-07-28T09:51:31;23.10;99.90
3051;DHT22;1535;51.098;6.414;2023-07-28T09:54:04;23.20;99.90
3051;DHT22;1535;51.098;6.414;2023-07-28T09:56:32;23.50;99.90
3051;DHT22;1535;51.098;6.414;2023-07-28T09:59:04;23.50;99.90
3051;DHT22;1535;51.098;6.414;2023-07-28T10:01:35;23.30;99.90
3051;DHT22;1535;51.098;6.414;2023-07-28T10:04:02;23.10;99.90
3051;DHT22;1535;51.098;6.414;2023-07-28T10:06:31;23.00;99.90
3051;DHT22;1535;51.098;6.414;2023-07-28T10:08:59;22.70;99.90
3051;DHT22;1535;51.098;6.414;2023-07-28T10:11:27;22.60;99.90
3051;DHT22;1535;51.098;6.414;2023-07-28T10:13:56;22.80;99.90
3051;DHT22;1535;51.098;6.414;2023-07-28T10:16:32;23.20;99.90
3051;DHT22;1535;51.098;6.414;2023-07-28T10:19:04;23.70;99.90
3051;DHT22;1535;51.098;6.414;2023-07-28T10:21:39;23.90;99.90
3051;DHT22;1535;51.098;6.414;2023-07-28T10:24:06;24.00;99.90
3051;DHT22;1535;51.098;6.414;2023-07-28T10:26:38;24.10;99.90
3051;DHT22;1535;51.098;6.414;2023-07-28T10:29:11;24.30;99.90
3051;DHT22;1535;51.098;6.414;2023-07-28T10:31:49;24.70;99.90
3051;DHT22;1535;51.098;6.414;2023-07-28T10:34:16;25.10;99.90
3051;DHT22;1535;51.098;6.414;2023-07-28T10:36:44;26.30;99.90
3051;DHT22;1535;51.098;6.414;2023-07-28T10:39:15;26.90;99.90
3051;DHT22;1535;51.098;6.414;2023-07-28T10:42:01;27.10;99.90
3051;DHT22;1535;51.098;6.414;2023-07-28T10:44:29;27.10;99.90
3051;DHT22;1535;51.098;6.414;2023-07-28T10:46:57;26.30;99.90
3051;DHT22;1535;51.098;6.414;2023-07-28T10:49:25;25.70;99.90
3051;DHT22;1535;51.098;6.414;2023-07-28T10:51:52;25.30;99.90
3051;DHT22;1535;51.098;6.414;2023-07-28T10:54:19;24.60;99.90
3051;DHT22;1535;51.098;6.414;2023-07-28T10:56:47;24.30;99.90
3051;DHT22;1535;51.098;6.414;2023-07-28T10:59:15;24.20;99.90
3051;DHT22;1535;51.098;6.414;2023-07-28T11:01:44;24.60;99.90
3051;DHT22;1535;51.098;6.414;2023-07-28T11:04:13;25.20;99.90
3051;DHT22;1535;51.098;6.414;2023-07-28T11:06:43;26.50;99.90
3051;DHT22;1535;51.098;6.414;2023-07-28T11:09:13;27.20;99.90
3051;DHT22;1535;51.098;6.414;2023-07-28T11:11:41;27.20;99.90
3051;DHT22;1535;51.098;6.414;2023-07-28T11:14:09;26.80;99.90
3051;DHT22;1535;51.098;6.414;2023-07-28T11:16:37;26.50;99.90
3051;DHT22;1535;51.098;6.414;2023-07-28T11:19:08;26.50;99.90
3051;DHT22;1535;51.098;6.414;2023-07-28T11:21:38;26.50;99.90
3051;DHT22;1535;51.098;6.414;2023-07-28T11:24:07;26.60;99.90
3051;DHT22;1535;51.098;6.414;2023-07-28T11:26:35;26.70;99.90
3051;DHT22;1535;51.098;6.414;2023-07-28T11:29:04;26.40;99.90
3051;DHT22;1535;51.098;6.414;2023-07-28T11:31:34;26.20;99.90
3051;DHT22;1535;51.098;6.414;2023-07-28T11:34:01;26.30;99.90
3051;DHT22;1535;51.098;6.414;2023-07-28T11:36:29;26.30;99.90
3051;DHT22;1535;51.098;6.414;2023-07-28T11:39:00;26.40;99.90
3051;DHT22;1535;51.098;6.414;2023-07-28T11:41:31;26.50;99.90
3051;DHT22;1535;51.098;6.414;2023-07-28T11:44:00;26.20;99.90
3051;DHT22;1535;51.098;6.414;2023-07-28T11:46:35;26.20;99.90
3051;DHT22;1535;51.098;6.414;2023-07-28T11:49:10;27.10;99.90
3051;DHT22;1535;51.098;6.414;2023-07-28T11:51:39;27.40;99.90
3051;DHT22;1535;51.098;6.414;2023-07-28T11:54:10;27.40;99.90
3051;DHT22;1535;51.098;6.414;2023-07-28T11:56:39;27.20;99.90
3051;DHT22;1535;51.098;6.414;2023-07-28T11:59:06;27.30;99.90
3051;DHT22;1535;51.098;6.414;2023-07-28T12:01:33;27.50;99.90
3051;DHT22;1535;51.098;6.414;2023-07-28T12:04:24;27.50;99.90
3051;DHT22;1535;51.098;6.414;2023-07-28T12:07:05;28.20;99.90
3051;DHT22;1535;51.098;6.414;2023-07-28T12:09:47;27.90;99.90
3051;DHT22;1535;51.098;6.414;2023-07-28T12:12:17;27.60;99.90
3051;DHT22;1535;51.098;6.414;2023-07-28T12:14:45;27.10;99.90
3051;DHT22;1535;51.098;6.414;2023-07-28T12:17:12;26.60;99.90
3051;DHT22;1535;51.098;6.414;2023-07-28T12:19:41;26.10;99.90
3051;DHT22;1535;51.098;6.414;2023-07-28T12:22:09;25.30;99.90
3051;DHT22;1535;51.098;6.414;2023-07-28T12:24:38;24.60;99.90
3051;DHT22;1535;51.098;6.414;2023-07-28T12:27:10;23.50;99.90
3051;DHT22;1535;51.098;6.414;2023-07-28T12:29:38;22.20;99.90
3051;DHT22;1535;51.098;6.414;2023-07-28T12:32:06;21.40;99.90
3051;DHT22;1535;51.098;6.414;2023-07-28T12:34:33;21.00;99.90
3051;DHT22;1535;51.098;6.414;2023-07-28T12:37:00;20.90;99.90
3051;DHT22;1535;51.098;6.414;2023-07-28T12:39:27;20.60;99.90
3051;DHT22;1535;51.098;6.414;2023-07-28T12:41:56;20.60;99.90
3051;DHT22;1535;51.098;6.414;2023-07-28T12:44:24;20.60;99.90
3051;DHT22;1535;51.098;6.414;2023-07-28T12:46:51;20.50;99.90
3051;DHT22;1535;51.098;6.414;2023-07-28T12:49:18;20.50;99.90
3051;DHT22;1535;51.098;6.414;2023-07-28T12:51:46;20.50;99.90
3051;DHT22;1535;51.098;6.414;2023-07-28T12:54:13;20.50;99.90
3051;DHT22;1535;51.098;6.414;2023-07-28T12:56:39;20.60;99.90
3051;DHT22;1535;51.098;6.414;2023-07-28T12:59:08;20.70;99.90
3051;DHT22;1535;51.098;6.414;2023-07-28T13:01:37;20.90;99.90
3051;DHT22;1535;51.098;6.414;2023-07-28T13:04:04;21.10;99.90
3051;DHT22;1535;51.098;6.414;2023-07-28T13:06:31;21.10;99.90
3051;DHT22;1535;51.098;6.414;2023-07-28T13:08:58;21.00;99.90
3051;DHT22;1535;51.098;6.414;2023-07-28T13:11:26;21.30;99.90
3051;DHT22;1535;51.098;6.414;2023-07-28T13:13:53;21.50;99.90
3051;DHT22;1535;51.098;6.414;2023-07-28T13:16:22;21.60;99.90
3051;DHT22;1535;51.098;6.414;2023-07-28T13:18:49;21.70;99.90
3051;DHT22;1535;51.098;6.414;2023-07-28T13:21:17;21.70;99.90
3051;DHT22;1535;51.098;6.414;2023-07-28T13:23:44;21.70;99.90
3051;DHT22;1535;51.098;6.414;2023-07-28T13:26:11;21.70;99.90
3051;DHT22;1535;51.098;6.414;2023-07-28T13:28:38;21.70;99.90
3051;DHT22;1535;51.098;6.414;2023-07-28T13:31:08;21.80;99.90
3051;DHT22;1535;51.098;6.414;2023-07-28T13:33:37;21.60;99.90
3051;DHT22;1535;51.098;6.414;2023-07-28T13:36:04;21.40;99.90
3051;DHT22;1535;51.098;6.414;2023-07-28T13:38:33;21.30;99.90
3051;DHT22;1535;51.098;6.414;2023-07-28T13:41:00;21.30;99.90
3051;DHT22;1535;51.098;6.414;2023-07-28T13:43:28;21.20;99.90
3051;DHT22;1535;51.098;6.414;2023-07-28T13:45:55;21.00;99.90
3051;DHT22;1535;51.098;6.414;2023-07-28T13:48:21;21.10;99.90
3051;DHT22;1535;51.098;6.414;2023-07-28T13:50:49;21.20;99.90
3051;DHT22;1535;51.098;6.414;2023-07-28T13:53:16;21.30;99.90
3051;DHT22;1535;51.098;6.414;2023-07-28T13:55:43;21.70;99.90
3051;DHT22;1535;51.098;6.414;2023-07-28T13:58:11;21.90;99.90
3051;DHT22;1535;51.098;6.414;2023-07-28T14:00:37;21.90;99.90
3051;DHT22;1535;51.098;6.414;2023-07-28T14:03:04;22.00;99.90
3051;DHT22;1535;51.098;6.414;2023-07-28T14:05:31;22.30;99.90
3051;DHT22;1535;51.098;6.414;2023-07-28T14:07:59;22.30;99.90
3051;DHT22;1535;51.098;6.414;2023-07-28T14:10:26;22.70;99.90
3051;DHT22;1535;51.098;6.414;2023-07-28T14:12:53;22.70;99.90
3051;DHT22;1535;51.098;6.414;2023-07-28T14:15:20;23.10;99.90
3051;DHT22;1535;51.098;6.414;2023-07-28T14:17:48;23.20;99.90
3051;DHT22;1535;51.098;6.414;2023-07-28T14:20:14;23.20;99.90
3051;DHT22;1535;51.098;6.414;2023-07-28T14:22:41;23.40;99.90
3051;DHT22;1535;51.098;6.414;2023-07-28T14:25:09;23.30;99.90
3051;DHT22;1535;51.098;6.414;2023-07-28T14:27:37;23.20;99.90
3051;DHT22;1535;51.098;6.414;2023-07-28T14:30:05;23.20;99.90
3051;DHT22;1535;51.098;6.414;2023-07-28T14:32:32;23.20;99.90
3051;DHT22;1535;51.098;6.414;2023-07-28T14:34:58;23.10;99.90
3051;DHT22;1535;51.098;6.414;2023-07-28T14:37:25;23.10;99.90
3051;DHT22;1535;51.098;6.414;2023-07-28T14:39:52;22.70;99.90
3051;DHT22;1535;51.098;6.414;2023-07-28T14:42:20;22.20;99.90
3051;DHT22;1535;51.098;6.414;2023-07-28T14:44:47;21.70;99.90
3051;DHT22;1535;51.098;6.414;2023-07-28T14:47:15;21.60;99.90
3051;DHT22;1535;51.098;6.414;2023-07-28T14:49:42;21.60;99.90
3051;DHT22;1535;51.098;6.414;2023-07-28T14:52:09;21.50;99.90
3051;DHT22;1535;51.098;6.414;2023-07-28T14:54:37;21.30;99.90
3051;DHT22;1535;51.098;6.414;2023-07-28T14:57:04;21.30;99.90
3051;DHT22;1535;51.098;6.414;2023-07-28T14:59:33;21.20;99.90
3051;DHT22;1535;51.098;6.414;2023-07-28T15:02:00;21.00;99.90
3051;DHT22;1535;51.098;6.414;2023-07-28T15:04:27;21.30;99.90
3051;DHT22;1535;51.098;6.414;2023-07-28T15:06:53;21.30;99.90
3051;DHT22;1535;51.098;6.414;2023-07-28T15:09:20;21.50;99.90
3051;DHT22;1535;51.098;6.414;2023-07-28T15:11:49;21.90;99.90
3051;DHT22;1535;51.098;6.414;2023-07-28T15:14:16;22.30;99.90
3051;DHT22;1535;51.098;6.414;2023-07-28T15:16:44;22.50;99.90
3051;DHT22;1535;51.098;6.414;2023-07-28T15:19:11;23.20;99.90
3051;DHT22;1535;51.098;6.414;2023-07-28T15:21:39;24.20;99.90
3051;DHT22;1535;51.098;6.414;2023-07-28T15:24:06;24.20;99.90
3051;DHT22;1535;51.098;6.414;2023-07-28T15:26:33;24.30;99.90
3051;DHT22;1535;51.098;6.414;2023-07-28T15:29:01;24.50;99.90
3051;DHT22;1535;51.098;6.414;2023-07-28T15:31:28;24.60;99.90
3051;DHT22;1535;51.098;6.414;2023-07-28T15:33:57;24.80;99.90
3051;DHT22;1535;51.098;6.414;2023-07-28T15:36:24;25.00;99.90
3051;DHT22;1535;51.098;6.414;2023-07-28T15:38:51;25.10;99.90
3051;DHT22;1535;51.098;6.414;2023-07-28T15:41:19;25.80;99.90
3051;DHT22;1535;51.098;6.414;2023-07-28T15:43:45;26.60;99.90
3051;DHT22;1535;51.098;6.414;2023-07-28T15:46:12;27.20;99.90
3051;DHT22;1535;51.098;6.414;2023-07-28T15:48:39;27.20;99.90
3051;DHT22;1535;51.098;6.414;2023-07-28T15:51:07;27.30;99.90
3051;DHT22;1535;51.098;6.414;2023-07-28T15:53:33;28.00;99.90
3051;DHT22;1535;51.098;6.414;2023-07-28T15:56:00;28.30;99.90
3051;DHT22;1535;51.098;6.414;2023-07-28T15:58:27;28.10;99.90
3051;DHT22;1535;51.098;6.414;2023-07-28T16:00:57;28.10;99.90
3051;DHT22;1535;51.098;6.414;2023-07-28T16:03:25;28.20;99.90
3051;DHT22;1535;51.098;6.414;2023-07-28T16:05:53;29.00;99.90
3051;DHT22;1535;51.098;6.414;2023-07-28T16:08:21;29.30;99.90